sensor_id;sensor_type;location;lat;lon;timestamp;P1;durP1;ratioP1;P2;durP2;ratioP2
21527;SDS011;10925;49.102;-0.370;2023-02-21T00:02:35;173.60;;;59.08;;
21527;SDS011;10925;49.102;-0.370;2023-02-21T00:05:19;157.82;;;59.53;;
21527;SDS011;10925;49.102;-0.370;2023-02-21T00:08:05;188.67;;;62.47;;
21527;SDS011;10925;49.102;-0.370;2023-02-21T00:11:06;215.23;;;57.85;;
21527;SDS011;10925;49.102;-0.370;2023-02-21T00:13:50;334.15;;;64.00;;
21527;SDS011;10925;49.102;-0.370;2023-02-21T00:16:33;263.67;;;60.90;;
21527;SDS011;10925;49.102;-0.370;2023-02-21T00:19:17;304.40;;;65.47;;
21527;SDS011;10925;49.102;-0.370;2023-02-21T00:22:02;326.33;;;63.88;;
21527;SDS011;10925;49.102;-0.370;2023-02-21T00:24:45;264.92;;;60.83;;
21527;SDS011;10925;49.102;-0.370;2023-02-21T00:27:29;267.77;;;59.67;;
21527;SDS011;10925;49.102;-0.370;2023-02-21T00:30:14;260.33;;;59.10;;
21527;SDS011;10925;49.102;-0.370;2023-02-21T00:32:58;222.43;;;57.42;;
21527;SDS011;10925;49.102;-0.370;2023-02-21T00:35:42;309.17;;;61.90;;
21527;SDS011;10925;49.102;-0.370;2023-02-21T00:38:26;232.15;;;57.10;;
21527;SDS011;10925;49.102;-0.370;2023-02-21T00:41:11;290.60;;;59.65;;
21527;SDS011;10925;49.102;-0.370;2023-02-21T00:43:55;339.08;;;60.05;;
21527;SDS011;10925;49.102;-0.370;2023-02-21T00:46:39;332.52;;;61.13;;
21527;SDS011;10925;49.102;-0.370;2023-02-21T00:49:25;312.90;;;60.60;;
21527;SDS011;10925;49.102;-0.370;2023-02-21T00:52:10;316.02;;;63.47;;
21527;SDS011;10925;49.102;-0.370;2023-02-21T00:54:56;363.52;;;64.05;;
21527;SDS011;10925;49.102;-0.370;2023-02-21T00:57:41;417.40;;;59.78;;
21527;SDS011;10925;49.102;-0.370;2023-02-21T01:00:27;465.05;;;59.83;;
21527;SDS011;10925;49.102;-0.370;2023-02-21T01:03:12;338.50;;;55.78;;
21527;SDS011;10925;49.102;-0.370;2023-02-21T01:05:56;369.13;;;56.45;;
21527;SDS011;10925;49.102;-0.370;2023-02-21T01:08:43;304.73;;;53.95;;
21527;SDS011;10925;49.102;-0.370;2023-02-21T01:11:28;378.55;;;55.88;;
21527;SDS011;10925;49.102;-0.370;2023-02-21T01:14:14;356.67;;;57.53;;
21527;SDS011;10925;49.102;-0.370;2023-02-21T01:16:58;288.40;;;53.92;;
21527;SDS011;10925;49.102;-0.370;2023-02-21T01:19:41;265.67;;;51.80;;
21527;SDS011;10925;49.102;-0.370;2023-02-21T01:22:26;427.35;;;54.88;;
21527;SDS011;10925;49.102;-0.370;2023-02-21T01:25:13;276.88;;;52.08;;
21527;SDS011;10925;49.102;-0.370;2023-02-21T01:27:57;319.27;;;53.63;;
21527;SDS011;10925;49.102;-0.370;2023-02-21T01:30:42;315.92;;;51.92;;
21527;SDS011;10925;49.102;-0.370;2023-02-21T01:33:27;307.77;;;51.08;;
21527;SDS011;10925;49.102;-0.370;2023-02-21T01:36:12;295.65;;;49.95;;
21527;SDS011;10925;49.102;-0.370;2023-02-21T01:38:56;317.42;;;51.97;;
21527;SDS011;10925;49.102;-0.370;2023-02-21T01:41:40;236.45;;;46.38;;
21527;SDS011;10925;49.102;-0.370;2023-02-21T01:44:35;216.73;;;46.35;;
21527;SDS011;10925;49.102;-0.370;2023-02-21T01:47:20;227.57;;;45.95;;
21527;SDS011;10925;49.102;-0.370;2023-02-21T01:50:08;204.30;;;45.20;;
21527;SDS011;10925;49.102;-0.370;2023-02-21T01:52:54;226.05;;;43.70;;
21527;SDS011;10925;49.102;-0.370;2023-02-21T01:55:40;242.40;;;46.38;;
21527;SDS011;10925;49.102;-0.370;2023-02-21T01:58:25;226.35;;;45.80;;
21527;SDS011;10925;49.102;-0.370;2023-02-21T02:01:14;233.88;;;46.80;;
21527;SDS011;10925;49.102;-0.370;2023-02-21T02:03:59;263.25;;;47.95;;
21527;SDS011;10925;49.102;-0.370;2023-02-21T02:06:44;191.00;;;45.40;;
21527;SDS011;10925;49.102;-0.370;2023-02-21T02:09:28;229.15;;;46.70;;
21527;SDS011;10925;49.102;-0.370;2023-02-21T02:15:05;239.52;;;47.10;;
21527;SDS011;10925;49.102;-0.370;2023-02-21T02:25:24;217.70;;;44.00;;
21527;SDS011;10925;49.102;-0.370;2023-02-21T02:28:05;238.45;;;44.33;;
21527;SDS011;10925;49.102;-0.370;2023-02-21T02:35:55;387.80;;;48.80;;
21527;SDS011;10925;49.102;-0.370;2023-02-21T02:38:29;181.15;;;43.03;;
21527;SDS011;10925;49.102;-0.370;2023-02-21T02:44:05;166.98;;;38.72;;
21527;SDS011;10925;49.102;-0.370;2023-02-21T02:46:36;173.18;;;39.95;;
21527;SDS011;10925;49.102;-0.370;2023-02-21T02:51:48;249.68;;;41.47;;
21527;SDS011;10925;49.102;-0.370;2023-02-21T02:54:14;258.38;;;41.90;;
21527;SDS011;10925;49.102;-0.370;2023-02-21T02:56:41;246.80;;;42.65;;
21527;SDS011;10925;49.102;-0.370;2023-02-21T02:59:09;257.65;;;42.40;;
21527;SDS011;10925;49.102;-0.370;2023-02-21T03:12:24;232.95;;;43.13;;
21527;SDS011;10925;49.102;-0.370;2023-02-21T03:17:23;380.65;;;47.15;;
21527;SDS011;10925;49.102;-0.370;2023-02-21T03:19:52;288.88;;;44.20;;
21527;SDS011;10925;49.102;-0.370;2023-02-21T03:22:19;250.27;;;42.40;;
21527;SDS011;10925;49.102;-0.370;2023-02-21T03:24:47;232.50;;;39.08;;
21527;SDS011;10925;49.102;-0.370;2023-02-21T03:27:15;209.95;;;38.40;;
21527;SDS011;10925;49.102;-0.370;2023-02-21T03:29:43;241.55;;;38.65;;
21527;SDS011;10925;49.102;-0.370;2023-02-21T03:32:14;221.88;;;37.03;;
21527;SDS011;10925;49.102;-0.370;2023-02-21T03:34:45;168.50;;;36.00;;
21527;SDS011;10925;49.102;-0.370;2023-02-21T03:37:32;216.48;;;37.05;;
21527;SDS011;10925;49.102;-0.370;2023-02-21T03:39:59;174.40;;;37.30;;
21527;SDS011;10925;49.102;-0.370;2023-02-21T03:42:29;181.70;;;37.70;;
21527;SDS011;10925;49.102;-0.370;2023-02-21T03:44:56;224.25;;;38.03;;
21527;SDS011;10925;49.102;-0.370;2023-02-21T03:47:23;172.13;;;35.58;;
21527;SDS011;10925;49.102;-0.370;2023-02-21T03:49:50;134.95;;;34.55;;
21527;SDS011;10925;49.102;-0.370;2023-02-21T03:52:18;160.38;;;35.45;;
21527;SDS011;10925;49.102;-0.370;2023-02-21T03:54:45;202.45;;;37.53;;
21527;SDS011;10925;49.102;-0.370;2023-02-21T04:00:13;181.60;;;34.67;;
21527;SDS011;10925;49.102;-0.370;2023-02-21T04:02:41;166.20;;;36.65;;
21527;SDS011;10925;49.102;-0.370;2023-02-21T04:05:14;220.50;;;36.55;;
21527;SDS011;10925;49.102;-0.370;2023-02-21T04:07:42;168.55;;;34.00;;
21527;SDS011;10925;49.102;-0.370;2023-02-21T04:10:09;273.52;;;37.47;;
21527;SDS011;10925;49.102;-0.370;2023-02-21T04:12:36;243.38;;;34.55;;
21527;SDS011;10925;49.102;-0.370;2023-02-21T04:15:02;219.02;;;33.72;;
21527;SDS011;10925;49.102;-0.370;2023-02-21T04:17:27;293.20;;;35.53;;
21527;SDS011;10925;49.102;-0.370;2023-02-21T04:19:56;256.55;;;35.10;;
21527;SDS011;10925;49.102;-0.370;2023-02-21T04:22:23;241.88;;;33.65;;
21527;SDS011;10925;49.102;-0.370;2023-02-21T04:24:50;192.55;;;33.42;;
21527;SDS011;10925;49.102;-0.370;2023-02-21T04:27:18;181.27;;;33.53;;
21527;SDS011;10925;49.102;-0.370;2023-02-21T04:29:43;357.20;;;36.90;;
21527;SDS011;10925;49.102;-0.370;2023-02-21T04:32:11;410.52;;;39.85;;
21527;SDS011;10925;49.102;-0.370;2023-02-21T04:34:38;428.77;;;37.85;;
21527;SDS011;10925;49.102;-0.370;2023-02-21T04:37:04;299.73;;;35.45;;
21527;SDS011;10925;49.102;-0.370;2023-02-21T04:39:30;372.48;;;36.40;;
21527;SDS011;10925;49.102;-0.370;2023-02-21T04:41:57;339.52;;;37.03;;
21527;SDS011;10925;49.102;-0.370;2023-02-21T04:44:22;304.00;;;34.35;;
21527;SDS011;10925;49.102;-0.370;2023-02-21T04:46:49;366.63;;;36.00;;
21527;SDS011;10925;49.102;-0.370;2023-02-21T04:49:16;370.88;;;36.13;;
21527;SDS011;10925;49.102;-0.370;2023-02-21T04:51:43;357.52;;;37.33;;
21527;SDS011;10925;49.102;-0.370;2023-02-21T04:54:10;385.48;;;36.90;;
21527;SDS011;10925;49.102;-0.370;2023-02-21T04:56:39;403.00;;;36.80;;
21527;SDS011;10925;49.102;-0.370;2023-02-21T04:59:06;309.85;;;35.58;;
21527;SDS011;10925;49.102;-0.370;2023-02-21T05:01:33;341.23;;;38.40;;
21527;SDS011;10925;49.102;-0.370;2023-02-21T05:04:00;479.52;;;39.53;;
21527;SDS011;10925;49.102;-0.370;2023-02-21T05:06:26;439.50;;;40.38;;
21527;SDS011;10925;49.102;-0.370;2023-02-21T05:08:54;633.90;;;44.72;;
21527;SDS011;10925;49.102;-0.370;2023-02-21T05:11:21;474.08;;;42.90;;
21527;SDS011;10925;49.102;-0.370;2023-02-21T05:13:47;461.45;;;42.70;;
21527;SDS011;10925;49.102;-0.370;2023-02-21T05:16:14;594.38;;;41.58;;
21527;SDS011;10925;49.102;-0.370;2023-02-21T05:18:42;571.58;;;42.35;;
21527;SDS011;10925;49.102;-0.370;2023-02-21T05:21:09;607.42;;;43.25;;
21527;SDS011;10925;49.102;-0.370;2023-02-21T05:23:37;436.63;;;40.70;;
21527;SDS011;10925;49.102;-0.370;2023-02-21T05:26:07;430.20;;;41.22;;
21527;SDS011;10925;49.102;-0.370;2023-02-21T05:28:35;504.25;;;42.58;;
21527;SDS011;10925;49.102;-0.370;2023-02-21T05:31:02;551.00;;;42.85;;
21527;SDS011;10925;49.102;-0.370;2023-02-21T05:33:30;578.83;;;42.15;;
21527;SDS011;10925;49.102;-0.370;2023-02-21T05:35:57;487.55;;;40.22;;
21527;SDS011;10925;49.102;-0.370;2023-02-21T05:38:24;464.25;;;41.00;;
21527;SDS011;10925;49.102;-0.370;2023-02-21T05:40:52;493.67;;;41.03;;
21527;SDS011;10925;49.102;-0.370;2023-02-21T05:43:18;461.77;;;39.72;;
21527;SDS011;10925;49.102;-0.370;2023-02-21T05:45:43;429.00;;;40.38;;
21527;SDS011;10925;49.102;-0.370;2023-02-21T05:48:11;346.25;;;37.95;;
21527;SDS011;10925;49.102;-0.370;2023-02-21T05:50:36;496.67;;;44.03;;
21527;SDS011;10925;49.102;-0.370;2023-02-21T05:53:03;356.00;;;35.97;;
21527;SDS011;10925;49.102;-0.370;2023-02-21T05:55:31;340.85;;;38.13;;
21527;SDS011;10925;49.102;-0.370;2023-02-21T05:57:58;274.60;;;35.58;;
21527;SDS011;10925;49.102;-0.370;2023-02-21T06:00:27;350.30;;;37.92;;
21527;SDS011;10925;49.102;-0.370;2023-02-21T06:02:54;325.58;;;37.70;;
21527;SDS011;10925;49.102;-0.370;2023-02-21T06:05:21;263.60;;;35.35;;
21527;SDS011;10925;49.102;-0.370;2023-02-21T06:07:47;273.52;;;35.47;;
21527;SDS011;10925;49.102;-0.370;2023-02-21T06:10:15;273.23;;;35.83;;
21527;SDS011;10925;49.102;-0.370;2023-02-21T06:12:42;353.95;;;38.05;;
21527;SDS011;10925;49.102;-0.370;2023-02-21T06:15:09;202.73;;;34.90;;
21527;SDS011;10925;49.102;-0.370;2023-02-21T06:17:38;300.90;;;35.33;;
21527;SDS011;10925;49.102;-0.370;2023-02-21T06:20:06;291.02;;;36.35;;
21527;SDS011;10925;49.102;-0.370;2023-02-21T06:22:32;293.55;;;36.03;;
21527;SDS011;10925;49.102;-0.370;2023-02-21T06:24:59;287.88;;;39.05;;
21527;SDS011;10925;49.102;-0.370;2023-02-21T06:27:26;296.88;;;37.70;;
21527;SDS011;10925;49.102;-0.370;2023-02-21T06:29:53;362.38;;;40.38;;
21527;SDS011;10925;49.102;-0.370;2023-02-21T06:32:20;243.13;;;36.42;;
21527;SDS011;10925;49.102;-0.370;2023-02-21T06:34:47;292.35;;;37.92;;
21527;SDS011;10925;49.102;-0.370;2023-02-21T06:37:13;258.80;;;36.05;;
21527;SDS011;10925;49.102;-0.370;2023-02-21T06:39:38;271.08;;;36.38;;
21527;SDS011;10925;49.102;-0.370;2023-02-21T06:42:04;197.43;;;33.80;;
21527;SDS011;10925;49.102;-0.370;2023-02-21T06:44:30;325.48;;;37.05;;
21527;SDS011;10925;49.102;-0.370;2023-02-21T06:46:56;273.33;;;34.85;;
21527;SDS011;10925;49.102;-0.370;2023-02-21T06:49:21;349.75;;;35.15;;
21527;SDS011;10925;49.102;-0.370;2023-02-21T06:51:49;318.23;;;35.33;;
21527;SDS011;10925;49.102;-0.370;2023-02-21T06:54:14;251.02;;;35.70;;
21527;SDS011;10925;49.102;-0.370;2023-02-21T06:56:42;245.98;;;34.55;;
21527;SDS011;10925;49.102;-0.370;2023-02-21T06:59:10;215.80;;;34.17;;
21527;SDS011;10925;49.102;-0.370;2023-02-21T07:01:37;210.95;;;33.80;;
21527;SDS011;10925;49.102;-0.370;2023-02-21T07:04:04;205.10;;;34.35;;
21527;SDS011;10925;49.102;-0.370;2023-02-21T07:06:31;185.18;;;34.00;;
21527;SDS011;10925;49.102;-0.370;2023-02-21T07:08:57;683.83;;;201.38;;
21527;SDS011;10925;49.102;-0.370;2023-02-21T07:11:24;323.02;;;83.68;;
21527;SDS011;10925;49.102;-0.370;2023-02-21T07:13:52;217.27;;;45.85;;
21527;SDS011;10925;49.102;-0.370;2023-02-21T07:16:18;260.75;;;43.78;;
21527;SDS011;10925;49.102;-0.370;2023-02-21T07:18:45;181.60;;;33.05;;
21527;SDS011;10925;49.102;-0.370;2023-02-21T07:21:13;285.33;;;40.15;;
21527;SDS011;10925;49.102;-0.370;2023-02-21T07:23:44;224.35;;;39.45;;
21527;SDS011;10925;49.102;-0.370;2023-02-21T07:26:11;233.10;;;40.30;;
21527;SDS011;10925;49.102;-0.370;2023-02-21T07:28:38;208.65;;;33.22;;
21527;SDS011;10925;49.102;-0.370;2023-02-21T07:31:03;251.60;;;33.40;;
21527;SDS011;10925;49.102;-0.370;2023-02-21T07:33:29;238.40;;;34.42;;
21527;SDS011;10925;49.102;-0.370;2023-02-21T07:35:56;184.23;;;31.55;;
21527;SDS011;10925;49.102;-0.370;2023-02-21T07:38:24;190.63;;;31.05;;
21527;SDS011;10925;49.102;-0.370;2023-02-21T07:40:57;310.65;;;36.10;;
21527;SDS011;10925;49.102;-0.370;2023-02-21T07:43:25;155.63;;;30.70;;
21527;SDS011;10925;49.102;-0.370;2023-02-21T07:45:50;174.18;;;29.92;;
21527;SDS011;10925;49.102;-0.370;2023-02-21T07:48:17;245.32;;;34.22;;
21527;SDS011;10925;49.102;-0.370;2023-02-21T07:50:45;228.68;;;31.42;;
21527;SDS011;10925;49.102;-0.370;2023-02-21T07:53:12;195.70;;;33.38;;
21527;SDS011;10925;49.102;-0.370;2023-02-21T07:55:39;114.05;;;31.10;;
21527;SDS011;10925;49.102;-0.370;2023-02-21T07:58:06;208.27;;;33.90;;
21527;SDS011;10925;49.102;-0.370;2023-02-21T08:00:33;185.85;;;30.55;;
21527;SDS011;10925;49.102;-0.370;2023-02-21T08:03:03;229.73;;;31.23;;
21527;SDS011;10925;49.102;-0.370;2023-02-21T08:05:30;202.95;;;31.08;;
21527;SDS011;10925;49.102;-0.370;2023-02-21T08:07:57;269.73;;;37.25;;
21527;SDS011;10925;49.102;-0.370;2023-02-21T08:10:25;218.05;;;35.60;;
21527;SDS011;10925;49.102;-0.370;2023-02-21T08:12:52;279.85;;;29.95;;
21527;SDS011;10925;49.102;-0.370;2023-02-21T08:15:19;343.55;;;31.67;;
21527;SDS011;10925;49.102;-0.370;2023-02-21T08:17:47;311.67;;;28.52;;
21527;SDS011;10925;49.102;-0.370;2023-02-21T08:20:14;369.02;;;32.58;;
21527;SDS011;10925;49.102;-0.370;2023-02-21T08:22:42;214.07;;;29.13;;
21527;SDS011;10925;49.102;-0.370;2023-02-21T08:25:24;203.80;;;26.67;;
21527;SDS011;10925;49.102;-0.370;2023-02-21T08:27:50;209.73;;;26.83;;
21527;SDS011;10925;49.102;-0.370;2023-02-21T08:30:19;170.25;;;26.25;;
21527;SDS011;10925;49.102;-0.370;2023-02-21T08:32:45;185.43;;;26.60;;
21527;SDS011;10925;49.102;-0.370;2023-02-21T08:35:17;164.43;;;25.20;;
21527;SDS011;10925;49.102;-0.370;2023-02-21T08:37:44;141.55;;;23.90;;
21527;SDS011;10925;49.102;-0.370;2023-02-21T08:40:10;208.40;;;24.17;;
21527;SDS011;10925;49.102;-0.370;2023-02-21T08:42:38;204.90;;;23.77;;
21527;SDS011;10925;49.102;-0.370;2023-02-21T08:45:03;158.60;;;22.30;;
21527;SDS011;10925;49.102;-0.370;2023-02-21T08:47:33;299.35;;;25.52;;
21527;SDS011;10925;49.102;-0.370;2023-02-21T08:50:00;285.83;;;24.15;;
21527;SDS011;10925;49.102;-0.370;2023-02-21T08:52:27;187.27;;;21.52;;
21527;SDS011;10925;49.102;-0.370;2023-02-21T08:54:54;204.45;;;23.25;;
21527;SDS011;10925;49.102;-0.370;2023-02-21T08:57:21;165.38;;;21.98;;
21527;SDS011;10925;49.102;-0.370;2023-02-21T08:59:48;257.73;;;24.55;;
21527;SDS011;10925;49.102;-0.370;2023-02-21T09:02:16;248.52;;;24.63;;
21527;SDS011;10925;49.102;-0.370;2023-02-21T09:04:43;179.50;;;21.77;;
21527;SDS011;10925;49.102;-0.370;2023-02-21T09:07:14;130.50;;;22.73;;
21527;SDS011;10925;49.102;-0.370;2023-02-21T09:09:48;127.30;;;21.92;;
21527;SDS011;10925;49.102;-0.370;2023-02-21T09:12:13;130.95;;;21.55;;
21527;SDS011;10925;49.102;-0.370;2023-02-21T09:14:41;88.13;;;21.20;;
21527;SDS011;10925;49.102;-0.370;2023-02-21T09:17:09;90.57;;;21.63;;
21527;SDS011;10925;49.102;-0.370;2023-02-21T09:19:34;80.35;;;21.48;;
21527;SDS011;10925;49.102;-0.370;2023-02-21T09:22:02;158.85;;;24.23;;
21527;SDS011;10925;49.102;-0.370;2023-02-21T09:24:30;55.42;;;19.83;;
21527;SDS011;10925;49.102;-0.370;2023-02-21T09:26:56;64.30;;;19.85;;
21527;SDS011;10925;49.102;-0.370;2023-02-21T09:29:29;80.22;;;22.33;;
21527;SDS011;10925;49.102;-0.370;2023-02-21T09:31:55;75.15;;;21.25;;
21527;SDS011;10925;49.102;-0.370;2023-02-21T09:34:24;116.97;;;25.17;;
21527;SDS011;10925;49.102;-0.370;2023-02-21T09:36:56;59.45;;;22.10;;
21527;SDS011;10925;49.102;-0.370;2023-02-21T09:39:23;92.57;;;22.63;;
21527;SDS011;10925;49.102;-0.370;2023-02-21T09:41:50;78.03;;;22.45;;
21527;SDS011;10925;49.102;-0.370;2023-02-21T09:44:19;75.85;;;21.23;;
21527;SDS011;10925;49.102;-0.370;2023-02-21T09:46:48;70.13;;;24.17;;
21527;SDS011;10925;49.102;-0.370;2023-02-21T09:49:25;58.00;;;26.98;;
21527;SDS011;10925;49.102;-0.370;2023-02-21T09:51:53;77.03;;;26.80;;
21527;SDS011;10925;49.102;-0.370;2023-02-21T09:54:32;151.82;;;28.15;;
21527;SDS011;10925;49.102;-0.370;2023-02-21T09:57:00;75.32;;;24.83;;
21527;SDS011;10925;49.102;-0.370;2023-02-21T09:59:25;56.10;;;21.92;;
21527;SDS011;10925;49.102;-0.370;2023-02-21T10:01:56;38.03;;;20.83;;
21527;SDS011;10925;49.102;-0.370;2023-02-21T10:06:54;61.35;;;22.17;;
21527;SDS011;10925;49.102;-0.370;2023-02-21T10:09:25;45.92;;;23.25;;
21527;SDS011;10925;49.102;-0.370;2023-02-21T10:17:12;44.05;;;23.40;;
21527;SDS011;10925;49.102;-0.370;2023-02-21T10:19:43;59.28;;;25.70;;
21527;SDS011;10925;49.102;-0.370;2023-02-21T10:22:22;49.20;;;23.58;;
21527;SDS011;10925;49.102;-0.370;2023-02-21T10:24:50;74.82;;;25.52;;
21527;SDS011;10925;49.102;-0.370;2023-02-21T10:27:18;61.47;;;27.30;;
21527;SDS011;10925;49.102;-0.370;2023-02-21T10:32:13;74.10;;;29.58;;
21527;SDS011;10925;49.102;-0.370;2023-02-21T10:34:38;48.85;;;28.55;;
21527;SDS011;10925;49.102;-0.370;2023-02-21T10:37:25;48.88;;;27.25;;
21527;SDS011;10925;49.102;-0.370;2023-02-21T10:39:55;48.35;;;27.83;;
21527;SDS011;10925;49.102;-0.370;2023-02-21T10:42:30;52.60;;;30.02;;
21527;SDS011;10925;49.102;-0.370;2023-02-21T10:45:00;81.75;;;31.23;;
21527;SDS011;10925;49.102;-0.370;2023-02-21T10:47:32;62.40;;;31.90;;
21527;SDS011;10925;49.102;-0.370;2023-02-21T10:50:03;78.75;;;34.38;;
21527;SDS011;10925;49.102;-0.370;2023-02-21T10:53:04;83.15;;;36.72;;
21527;SDS011;10925;49.102;-0.370;2023-02-21T10:55:24;77.90;;;39.72;;
21527;SDS011;10925;49.102;-0.370;2023-02-21T10:58:05;86.32;;;39.65;;
21527;SDS011;10925;49.102;-0.370;2023-02-21T11:00:36;97.75;;;40.42;;
21527;SDS011;10925;49.102;-0.370;2023-02-21T11:03:11;96.72;;;44.50;;
21527;SDS011;10925;49.102;-0.370;2023-02-21T11:05:40;96.28;;;47.15;;
21527;SDS011;10925;49.102;-0.370;2023-02-21T11:08:14;83.70;;;44.53;;
21527;SDS011;10925;49.102;-0.370;2023-02-21T11:10:40;75.03;;;39.78;;
21527;SDS011;10925;49.102;-0.370;2023-02-21T11:13:14;63.08;;;35.78;;
21527;SDS011;10925;49.102;-0.370;2023-02-21T11:15:42;64.47;;;35.70;;
21527;SDS011;10925;49.102;-0.370;2023-02-21T11:18:17;56.15;;;32.88;;
21527;SDS011;10925;49.102;-0.370;2023-02-21T11:20:44;59.45;;;33.63;;
21527;SDS011;10925;49.102;-0.370;2023-02-21T11:25:44;53.45;;;29.83;;
21527;SDS011;10925;49.102;-0.370;2023-02-21T11:33:11;46.10;;;28.08;;
21527;SDS011;10925;49.102;-0.370;2023-02-21T11:35:43;46.88;;;27.98;;
21527;SDS011;10925;49.102;-0.370;2023-02-21T11:40:57;37.78;;;24.10;;
21527;SDS011;10925;49.102;-0.370;2023-02-21T11:43:25;37.55;;;23.50;;
21527;SDS011;10925;49.102;-0.370;2023-02-21T11:45:56;40.50;;;26.10;;
21527;SDS011;10925;49.102;-0.370;2023-02-21T11:48:24;39.38;;;25.67;;
21527;SDS011;10925;49.102;-0.370;2023-02-21T11:50:55;40.25;;;25.42;;
21527;SDS011;10925;49.102;-0.370;2023-02-21T11:55:55;31.83;;;21.63;;
21527;SDS011;10925;49.102;-0.370;2023-02-21T11:58:30;29.50;;;19.45;;
21527;SDS011;10925;49.102;-0.370;2023-02-21T12:01:04;30.45;;;19.55;;
21527;SDS011;10925;49.102;-0.370;2023-02-21T12:11:19;26.77;;;20.15;;
21527;SDS011;10925;49.102;-0.370;2023-02-21T12:26:50;22.00;;;15.75;;
21527;SDS011;10925;49.102;-0.370;2023-02-21T12:32:13;21.63;;;15.40;;
21527;SDS011;10925;49.102;-0.370;2023-02-21T12:34:52;31.67;;;20.42;;
21527;SDS011;10925;49.102;-0.370;2023-02-21T12:47:29;20.90;;;15.23;;
21527;SDS011;10925;49.102;-0.370;2023-02-21T12:57:27;25.05;;;14.07;;
21527;SDS011;10925;49.102;-0.370;2023-02-21T13:00:11;21.98;;;16.27;;
21527;SDS011;10925;49.102;-0.370;2023-02-21T13:02:55;29.88;;;22.25;;
21527;SDS011;10925;49.102;-0.370;2023-02-21T13:08:01;22.08;;;14.93;;
21527;SDS011;10925;49.102;-0.370;2023-02-21T13:10:48;19.17;;;14.75;;
21527;SDS011;10925;49.102;-0.370;2023-02-21T13:13:18;17.98;;;15.07;;
21527;SDS011;10925;49.102;-0.370;2023-02-21T13:15:44;23.95;;;14.73;;
21527;SDS011;10925;49.102;-0.370;2023-02-21T13:18:16;25.88;;;16.55;;
21527;SDS011;10925;49.102;-0.370;2023-02-21T13:20:54;23.85;;;16.52;;
21527;SDS011;10925;49.102;-0.370;2023-02-21T13:28:52;23.17;;;14.70;;
21527;SDS011;10925;49.102;-0.370;2023-02-21T13:31:20;23.73;;;15.88;;
21527;SDS011;10925;49.102;-0.370;2023-02-21T13:33:54;24.17;;;15.27;;
21527;SDS011;10925;49.102;-0.370;2023-02-21T13:38:58;22.63;;;15.68;;
21527;SDS011;10925;49.102;-0.370;2023-02-21T13:41:32;19.50;;;14.77;;
21527;SDS011;10925;49.102;-0.370;2023-02-21T14:08:23;29.88;;;16.15;;
21527;SDS011;10925;49.102;-0.370;2023-02-21T14:13:52;23.25;;;16.20;;
21527;SDS011;10925;49.102;-0.370;2023-02-21T14:19:10;24.58;;;16.73;;
21527;SDS011;10925;49.102;-0.370;2023-02-21T14:21:39;21.48;;;16.33;;
21527;SDS011;10925;49.102;-0.370;2023-02-21T14:37:12;35.92;;;21.23;;
21527;SDS011;10925;49.102;-0.370;2023-02-21T14:39:45;52.20;;;29.70;;
21527;SDS011;10925;49.102;-0.370;2023-02-21T14:42:23;29.95;;;18.75;;
21527;SDS011;10925;49.102;-0.370;2023-02-21T14:50:29;29.40;;;19.95;;
21527;SDS011;10925;49.102;-0.370;2023-02-21T15:04:07;26.23;;;16.83;;
21527;SDS011;10925;49.102;-0.370;2023-02-21T15:06:35;26.95;;;18.40;;
21527;SDS011;10925;49.102;-0.370;2023-02-21T15:09:12;28.48;;;16.92;;
21527;SDS011;10925;49.102;-0.370;2023-02-21T15:11:43;22.98;;;16.83;;
21527;SDS011;10925;49.102;-0.370;2023-02-21T15:14:11;29.90;;;19.17;;
21527;SDS011;10925;49.102;-0.370;2023-02-21T15:16:40;26.00;;;18.23;;
21527;SDS011;10925;49.102;-0.370;2023-02-21T15:19:18;28.73;;;18.55;;
21527;SDS011;10925;49.102;-0.370;2023-02-21T15:21:43;47.88;;;30.48;;
21527;SDS011;10925;49.102;-0.370;2023-02-21T15:24:12;28.63;;;18.92;;
21527;SDS011;10925;49.102;-0.370;2023-02-21T15:26:39;27.83;;;21.48;;
21527;SDS011;10925;49.102;-0.370;2023-02-21T15:31:31;34.28;;;22.45;;
21527;SDS011;10925;49.102;-0.370;2023-02-21T15:33:57;30.15;;;21.05;;
21527;SDS011;10925;49.102;-0.370;2023-02-21T15:36:25;26.98;;;20.27;;
21527;SDS011;10925;49.102;-0.370;2023-02-21T15:41:39;39.00;;;25.70;;
21527;SDS011;10925;49.102;-0.370;2023-02-21T15:46:45;37.00;;;24.50;;
21527;SDS011;10925;49.102;-0.370;2023-02-21T15:49:20;37.10;;;24.42;;
21527;SDS011;10925;49.102;-0.370;2023-02-21T15:51:47;44.67;;;26.50;;
21527;SDS011;10925;49.102;-0.370;2023-02-21T15:56:43;41.47;;;26.65;;
21527;SDS011;10925;49.102;-0.370;2023-02-21T15:59:10;38.33;;;24.60;;
21527;SDS011;10925;49.102;-0.370;2023-02-21T16:01:37;31.70;;;21.77;;
21527;SDS011;10925;49.102;-0.370;2023-02-21T16:04:19;37.72;;;24.58;;
21527;SDS011;10925;49.102;-0.370;2023-02-21T16:06:46;33.38;;;22.98;;
21527;SDS011;10925;49.102;-0.370;2023-02-21T16:09:29;41.85;;;27.77;;
21527;SDS011;10925;49.102;-0.370;2023-02-21T16:11:59;41.28;;;29.20;;
21527;SDS011;10925;49.102;-0.370;2023-02-21T16:17:03;37.88;;;24.33;;
21527;SDS011;10925;49.102;-0.370;2023-02-21T16:19:41;45.88;;;30.42;;
21527;SDS011;10925;49.102;-0.370;2023-02-21T16:27:34;45.60;;;32.47;;
21527;SDS011;10925;49.102;-0.370;2023-02-21T16:30:02;61.42;;;44.08;;
21527;SDS011;10925;49.102;-0.370;2023-02-21T16:32:32;135.18;;;73.22;;
21527;SDS011;10925;49.102;-0.370;2023-02-21T16:35:01;96.05;;;62.00;;
21527;SDS011;10925;49.102;-0.370;2023-02-21T16:37:28;77.97;;;55.53;;
21527;SDS011;10925;49.102;-0.370;2023-02-21T16:39:55;68.93;;;49.75;;
21527;SDS011;10925;49.102;-0.370;2023-02-21T16:42:22;67.95;;;49.20;;
21527;SDS011;10925;49.102;-0.370;2023-02-21T16:44:48;67.85;;;47.00;;
21527;SDS011;10925;49.102;-0.370;2023-02-21T16:47:14;61.38;;;39.72;;
21527;SDS011;10925;49.102;-0.370;2023-02-21T16:49:42;57.75;;;39.63;;
21527;SDS011;10925;49.102;-0.370;2023-02-21T16:52:12;62.40;;;42.47;;
21527;SDS011;10925;49.102;-0.370;2023-02-21T16:57:41;52.30;;;36.28;;
21527;SDS011;10925;49.102;-0.370;2023-02-21T17:00:08;48.03;;;32.13;;
21527;SDS011;10925;49.102;-0.370;2023-02-21T17:02:35;42.97;;;28.58;;
21527;SDS011;10925;49.102;-0.370;2023-02-21T17:05:03;40.20;;;27.90;;
21527;SDS011;10925;49.102;-0.370;2023-02-21T17:07:30;46.28;;;28.85;;
21527;SDS011;10925;49.102;-0.370;2023-02-21T17:09:57;41.10;;;28.42;;
21527;SDS011;10925;49.102;-0.370;2023-02-21T17:12:24;39.72;;;28.52;;
21527;SDS011;10925;49.102;-0.370;2023-02-21T17:14:49;44.90;;;28.65;;
21527;SDS011;10925;49.102;-0.370;2023-02-21T17:17:16;43.42;;;29.08;;
21527;SDS011;10925;49.102;-0.370;2023-02-21T17:19:43;44.20;;;27.92;;
21527;SDS011;10925;49.102;-0.370;2023-02-21T17:22:10;44.20;;;28.63;;
21527;SDS011;10925;49.102;-0.370;2023-02-21T17:24:37;51.63;;;29.50;;
21527;SDS011;10925;49.102;-0.370;2023-02-21T17:27:05;51.25;;;29.10;;
21527;SDS011;10925;49.102;-0.370;2023-02-21T17:29:31;44.78;;;28.77;;
21527;SDS011;10925;49.102;-0.370;2023-02-21T17:31:57;54.85;;;29.95;;
21527;SDS011;10925;49.102;-0.370;2023-02-21T17:34:25;50.22;;;30.67;;
21527;SDS011;10925;49.102;-0.370;2023-02-21T17:36:54;48.60;;;30.38;;
21527;SDS011;10925;49.102;-0.370;2023-02-21T17:39:21;45.53;;;30.23;;